sensor_id;sensor_type;location;lat;lon;timestamp;pressure;altitude;pressure_sealevel;temperature;humidity
68628;BME280;55611;48.602;9.490;2023-08-31T00:01:36;96390;;;16.6;62
68628;BME280;55611;48.602;9.490;2023-08-31T00:04:06;96390;;;16.7;62
68628;BME280;55611;48.602;9.490;2023-08-31T00:06:37;96380;;;16.7;62
68628;BME280;55611;48.602;9.490;2023-08-31T00:09:07;96380;;;16.7;62
68628;BME280;55611;48.602;9.490;2023-08-31T00:11:38;96380;;;16.7;62
68628;BME280;55611;48.602;9.490;2023-08-31T00:14:08;96380;;;16.7;62
68628;BME280;55611;48.602;9.490;2023-08-31T00:16:39;96380;;;16.6;61.5
68628;BME280;55611;48.602;9.490;2023-08-31T00:19:09;96390;;;16.6;61.5
68628;BME280;55611;48.602;9.490;2023-08-31T00:21:40;96380;;;16.6;61.5
68628;BME280;55611;48.602;9.490;2023-08-31T00:24:10;96390;;;16.6;61.5
68628;BME280;55611;48.602;9.490;2023-08-31T00:26:41;96390;;;16.6;61
68628;BME280;55611;48.602;9.490;2023-08-31T00:29:11;96390;;;16.6;61
68628;BME280;55611;48.602;9.490;2023-08-31T00:31:42;96390;;;16.5;61
68628;BME280;55611;48.602;9.490;2023-08-31T00:34:13;96390;;;16.6;61
68628;BME280;55611;48.602;9.490;2023-08-31T00:36:43;96380;;;16.6;61
68628;BME280;55611;48.602;9.490;2023-08-31T00:39:14;96380;;;16.6;61
68628;BME280;55611;48.602;9.490;2023-08-31T00:41:44;96390;;;16.6;61
68628;BME280;55611;48.602;9.490;2023-08-31T00:44:15;96390;;;16.6;61
68628;BME280;55611;48.602;9.490;2023-08-31T00:46:45;96390;;;16.6;61
68628;BME280;55611;48.602;9.490;2023-08-31T00:49:16;96400;;;16.6;61
68628;BME280;55611;48.602;9.490;2023-08-31T00:51:46;96400;;;16.5;61
68628;BME280;55611;48.602;9.490;2023-08-31T00:54:17;96410;;;16.5;61
68628;BME280;55611;48.602;9.490;2023-08-31T00:56:51;96400;;;16.5;61
68628;BME280;55611;48.602;9.490;2023-08-31T00:59:18;96400;;;16.5;61.5
68628;BME280;55611;48.602;9.490;2023-08-31T01:01:50;96400;;;16.6;61.5
68628;BME280;55611;48.602;9.490;2023-08-31T01:04:24;96400;;;16.6;61
68628;BME280;55611;48.602;9.490;2023-08-31T01:06:53;96400;;;16.6;61
68628;BME280;55611;48.602;9.490;2023-08-31T01:09:36;96400;;;16.6;61
68628;BME280;55611;48.602;9.490;2023-08-31T01:11:59;96410;;;16.6;61
68628;BME280;55611;48.602;9.490;2023-08-31T01:14:23;96400;;;16.6;61
68628;BME280;55611;48.602;9.490;2023-08-31T01:16:51;96390;;;16.6;61
68628;BME280;55611;48.602;9.490;2023-08-31T01:19:29;96400;;;16.6;61.5
68628;BME280;55611;48.602;9.490;2023-08-31T01:21:53;96400;;;16.6;61.5
68628;BME280;55611;48.602;9.490;2023-08-31T01:24:23;96400;;;16.6;61.5
68628;BME280;55611;48.602;9.490;2023-08-31T01:26:53;96400;;;16.6;61.5
68628;BME280;55611;48.602;9.490;2023-08-31T01:29:24;96390;;;16.7;61.5
68628;BME280;55611;48.602;9.490;2023-08-31T01:31:54;96400;;;16.7;61.5
68628;BME280;55611;48.602;9.490;2023-08-31T01:34:25;96400;;;16.7;61.5
68628;BME280;55611;48.602;9.490;2023-08-31T01:36:56;96400;;;16.7;61.5
68628;BME280;55611;48.602;9.490;2023-08-31T01:39:29;96400;;;16.7;61.5
68628;BME280;55611;48.602;9.490;2023-08-31T01:41:57;96410;;;16.8;61.5
68628;BME280;55611;48.602;9.490;2023-08-31T01:44:27;96410;;;16.8;61.5
68628;BME280;55611;48.602;9.490;2023-08-31T01:47:04;96410;;;16.8;61.5
68628;BME280;55611;48.602;9.490;2023-08-31T01:49:28;96410;;;16.8;61.5
68628;BME280;55611;48.602;9.490;2023-08-31T01:51:58;96410;;;16.8;61.5
68628;BME280;55611;48.602;9.490;2023-08-31T01:54:29;96410;;;16.8;61.5
68628;BME280;55611;48.602;9.490;2023-08-31T01:56:59;96410;;;16.9;61.5
68628;BME280;55611;48.602;9.490;2023-08-31T01:59:30;96410;;;16.9;61.5
68628;BME280;55611;48.602;9.490;2023-08-31T02:02:01;96420;;;16.9;61.5
68628;BME280;55611;48.602;9.490;2023-08-31T02:04:31;96420;;;16.8;61.5
68628;BME280;55611;48.602;9.490;2023-08-31T02:07:02;96420;;;16.9;61.5
68628;BME280;55611;48.602;9.490;2023-08-31T02:09:32;96430;;;16.9;61.5
68628;BME280;55611;48.602;9.490;2023-08-31T02:12:03;96420;;;16.9;61.5
68628;BME280;55611;48.602;9.490;2023-08-31T02:14:33;96420;;;17;61.5
68628;BME280;55611;48.602;9.490;2023-08-31T02:17:04;96420;;;17;61.5
68628;BME280;55611;48.602;9.490;2023-08-31T02:19:34;96420;;;16.9;61.5
68628;BME280;55611;48.602;9.490;2023-08-31T02:22:05;96430;;;17;61.5
68628;BME280;55611;48.602;9.490;2023-08-31T02:24:35;96420;;;17;61.5
68628;BME280;55611;48.602;9.490;2023-08-31T02:27:06;96420;;;17;61.5
68628;BME280;55611;48.602;9.490;2023-08-31T02:29:36;96420;;;17;61.5
68628;BME280;55611;48.602;9.490;2023-08-31T02:32:07;96430;;;17.1;61.5
68628;BME280;55611;48.602;9.490;2023-08-31T02:34:37;96430;;;17.1;61.5
68628;BME280;55611;48.602;9.490;2023-08-31T02:37:08;96430;;;17;61.5
68628;BME280;55611;48.602;9.490;2023-08-31T02:39:38;96440;;;17.1;61.5
68628;BME280;55611;48.602;9.490;2023-08-31T02:42:09;96450;;;17.1;61.5
68628;BME280;55611;48.602;9.490;2023-08-31T02:44:39;96440;;;17.1;61.5
68628;BME280;55611;48.602;9.490;2023-08-31T02:47:10;96450;;;17.1;61.5
68628;BME280;55611;48.602;9.490;2023-08-31T02:49:40;96430;;;17.1;61.5
68628;BME280;55611;48.602;9.490;2023-08-31T02:52:11;96420;;;17.1;61.5
68628;BME280;55611;48.602;9.490;2023-08-31T02:54:41;96430;;;17.1;61.5
68628;BME280;55611;48.602;9.490;2023-08-31T02:59:42;96430;;;17;61.5
68628;BME280;55611;48.602;9.490;2023-08-31T03:02:13;96420;;;17;61.5
68628;BME280;55611;48.602;9.490;2023-08-31T03:04:43;96430;;;17;61.5
68628;BME280;55611;48.602;9.490;2023-08-31T03:07:14;96430;;;17;61.5
68628;BME280;55611;48.602;9.490;2023-08-31T03:09:48;96430;;;16.9;61.5
68628;BME280;55611;48.602;9.490;2023-08-31T03:12:15;96440;;;16.9;61.5
68628;BME280;55611;48.602;9.490;2023-08-31T03:14:45;96440;;;16.9;61.5
68628;BME280;55611;48.602;9.490;2023-08-31T03:17:16;96450;;;16.9;61.5
68628;BME280;55611;48.602;9.490;2023-08-31T03:19:46;96450;;;16.9;61.5
68628;BME280;55611;48.602;9.490;2023-08-31T03:22:17;96450;;;16.8;61.5
68628;BME280;55611;48.602;9.490;2023-08-31T03:24:47;96450;;;16.8;61.5
68628;BME280;55611;48.602;9.490;2023-08-31T03:27:18;96460;;;16.8;61.5
68628;BME280;55611;48.602;9.490;2023-08-31T03:29:49;96450;;;16.8;61.5
68628;BME280;55611;48.602;9.490;2023-08-31T03:32:19;96450;;;16.8;61.5
68628;BME280;55611;48.602;9.490;2023-08-31T03:34:50;96460;;;16.8;61.5
68628;BME280;55611;48.602;9.490;2023-08-31T03:37:20;96460;;;16.8;61.5
68628;BME280;55611;48.602;9.490;2023-08-31T03:39:51;96460;;;16.8;61.5
68628;BME280;55611;48.602;9.490;2023-08-31T03:42:21;96460;;;16.9;61.5
68628;BME280;55611;48.602;9.490;2023-08-31T03:44:52;96450;;;16.9;61.5
68628;BME280;55611;48.602;9.490;2023-08-31T03:47:22;96450;;;16.9;61.5
68628;BME280;55611;48.602;9.490;2023-08-31T03:49:53;96450;;;16.9;61.5
68628;BME280;55611;48.602;9.490;2023-08-31T03:52:23;96460;;;17;61.5
68628;BME280;55611;48.602;9.490;2023-08-31T03:54:54;96460;;;17;61.5
68628;BME280;55611;48.602;9.490;2023-08-31T03:57:24;96460;;;16.9;61.5
68628;BME280;55611;48.602;9.490;2023-08-31T03:59:55;96470;;;16.9;61.5
68628;BME280;55611;48.602;9.490;2023-08-31T04:02:25;96470;;;16.9;62
68628;BME280;55611;48.602;9.490;2023-08-31T04:04:56;96470;;;17;62
68628;BME280;55611;48.602;9.490;2023-08-31T04:07:26;96480;;;17;62
68628;BME280;55611;48.602;9.490;2023-08-31T04:09:57;96480;;;17;62
68628;BME280;55611;48.602;9.490;2023-08-31T04:12:27;96480;;;17;62
68628;BME280;55611;48.602;9.490;2023-08-31T04:14:58;96480;;;16.9;61.5
68628;BME280;55611;48.602;9.490;2023-08-31T04:17:28;96490;;;16.9;61.5
68628;BME280;55611;48.602;9.490;2023-08-31T04:19:59;96490;;;16.8;61.5
68628;BME280;55611;48.602;9.490;2023-08-31T04:22:29;96490;;;16.8;61.5
68628;BME280;55611;48.602;9.490;2023-08-31T04:25:00;96480;;;16.9;61.5
68628;BME280;55611;48.602;9.490;2023-08-31T04:27:30;96480;;;16.9;61.5
68628;BME280;55611;48.602;9.490;2023-08-31T04:30:01;96490;;;16.9;61.5
68628;BME280;55611;48.602;9.490;2023-08-31T04:32:31;96490;;;16.8;61.5
68628;BME280;55611;48.602;9.490;2023-08-31T04:35:03;96490;;;16.8;61.5
68628;BME280;55611;48.602;9.490;2023-08-31T04:37:33;96500;;;16.8;62
68628;BME280;55611;48.602;9.490;2023-08-31T04:40:03;96500;;;16.9;62
68628;BME280;55611;48.602;9.490;2023-08-31T04:42:33;96500;;;16.9;62
68628;BME280;55611;48.602;9.490;2023-08-31T04:45:04;96500;;;16.9;62
68628;BME280;55611;48.602;9.490;2023-08-31T04:47:34;96510;;;16.9;62
68628;BME280;55611;48.602;9.490;2023-08-31T04:50:05;96500;;;17;62
68628;BME280;55611;48.602;9.490;2023-08-31T04:52:36;96510;;;17;62
68628;BME280;55611;48.602;9.490;2023-08-31T04:55:06;96510;;;16.9;62
68628;BME280;55611;48.602;9.490;2023-08-31T04:57:37;96510;;;16.9;62
68628;BME280;55611;48.602;9.490;2023-08-31T05:00:07;96500;;;16.9;62
68628;BME280;55611;48.602;9.490;2023-08-31T05:02:38;96510;;;16.9;61.5
68628;BME280;55611;48.602;9.490;2023-08-31T05:05:08;96520;;;16.9;62
68628;BME280;55611;48.602;9.490;2023-08-31T05:07:39;96520;;;16.9;62
68628;BME280;55611;48.602;9.490;2023-08-31T05:10:09;96530;;;17;62
68628;BME280;55611;48.602;9.490;2023-08-31T05:12:40;96530;;;17;62
68628;BME280;55611;48.602;9.490;2023-08-31T05:15:10;96520;;;17;62
68628;BME280;55611;48.602;9.490;2023-08-31T05:17:41;96520;;;17.1;62
68628;BME280;55611;48.602;9.490;2023-08-31T05:20:11;96520;;;17;62
68628;BME280;55611;48.602;9.490;2023-08-31T05:22:42;96530;;;17;62
68628;BME280;55611;48.602;9.490;2023-08-31T05:25:12;96530;;;17;62
68628;BME280;55611;48.602;9.490;2023-08-31T05:27:43;96530;;;17;62
68628;BME280;55611;48.602;9.490;2023-08-31T05:30:13;96530;;;17.1;62
68628;BME280;55611;48.602;9.490;2023-08-31T05:32:44;96540;;;17.1;62
68628;BME280;55611;48.602;9.490;2023-08-31T05:35:14;96540;;;17.1;62
68628;BME280;55611;48.602;9.490;2023-08-31T05:37:45;96540;;;17.1;62
68628;BME280;55611;48.602;9.490;2023-08-31T05:40:15;96550;;;17.2;62
68628;BME280;55611;48.602;9.490;2023-08-31T05:42:46;96550;;;17.2;62
68628;BME280;55611;48.602;9.490;2023-08-31T05:45:16;96550;;;17.2;62
68628;BME280;55611;48.602;9.490;2023-08-31T05:47:47;96550;;;17.2;62
68628;BME280;55611;48.602;9.490;2023-08-31T05:50:17;96550;;;17.2;62
68628;BME280;55611;48.602;9.490;2023-08-31T05:52:48;96550;;;17.3;62
68628;BME280;55611;48.602;9.490;2023-08-31T05:55:18;96550;;;17.3;62
68628;BME280;55611;48.602;9.490;2023-08-31T05:57:49;96560;;;17.3;62
68628;BME280;55611;48.602;9.490;2023-08-31T06:00:19;96560;;;17.3;62
68628;BME280;55611;48.602;9.490;2023-08-31T06:02:50;96560;;;17.4;62
68628;BME280;55611;48.602;9.490;2023-08-31T06:05:21;96570;;;17.4;62
68628;BME280;55611;48.602;9.490;2023-08-31T06:07:51;96570;;;17.6;62
68628;BME280;55611;48.602;9.490;2023-08-31T06:10:21;96570;;;17.7;62
68628;BME280;55611;48.602;9.490;2023-08-31T06:12:52;96580;;;17.9;62
68628;BME280;55611;48.602;9.490;2023-08-31T06:15:23;96580;;;17.9;62
68628;BME280;55611;48.602;9.490;2023-08-31T06:17:53;96580;;;17.9;62
68628;BME280;55611;48.602;9.490;2023-08-31T06:20:24;96590;;;17.9;62
68628;BME280;55611;48.602;9.490;2023-08-31T06:22:54;96590;;;17.9;62
68628;BME280;55611;48.602;9.490;2023-08-31T06:25:25;96600;;;17.8;62
68628;BME280;55611;48.602;9.490;2023-08-31T06:27:55;96600;;;17.8;62
68628;BME280;55611;48.602;9.490;2023-08-31T06:30:26;96600;;;17.7;62
68628;BME280;55611;48.602;9.490;2023-08-31T06:32:56;96610;;;17.8;62
68628;BME280;55611;48.602;9.490;2023-08-31T06:35:27;96610;;;17.9;62
68628;BME280;55611;48.602;9.490;2023-08-31T06:37:57;96610;;;17.9;62
68628;BME280;55611;48.602;9.490;2023-08-31T06:40:28;96600;;;17.9;62
68628;BME280;55611;48.602;9.490;2023-08-31T06:42:58;96610;;;18;62
68628;BME280;55611;48.602;9.490;2023-08-31T06:45:29;96610;;;18;62
68628;BME280;55611;48.602;9.490;2023-08-31T06:48:00;96600;;;18.1;62
68628;BME280;55611;48.602;9.490;2023-08-31T06:50:30;96600;;;18.2;62
68628;BME280;55611;48.602;9.490;2023-08-31T06:53:00;96590;;;18.3;62
68628;BME280;55611;48.602;9.490;2023-08-31T06:55:31;96600;;;18.4;62
68628;BME280;55611;48.602;9.490;2023-08-31T06:58:01;96610;;;18.6;62
68628;BME280;55611;48.602;9.490;2023-08-31T07:00:32;96610;;;18.8;62
68628;BME280;55611;48.602;9.490;2023-08-31T07:03:02;96620;;;18.8;62
68628;BME280;55611;48.602;9.490;2023-08-31T07:05:34;96620;;;18.8;62
68628;BME280;55611;48.602;9.490;2023-08-31T07:08:03;96630;;;18.9;62
68628;BME280;55611;48.602;9.490;2023-08-31T07:10:34;96630;;;18.9;62
68628;BME280;55611;48.602;9.490;2023-08-31T07:13:04;96640;;;19;62
68628;BME280;55611;48.602;9.490;2023-08-31T07:15:35;96620;;;19;62
68628;BME280;55611;48.602;9.490;2023-08-31T07:18:05;96630;;;18.9;62
68628;BME280;55611;48.602;9.490;2023-08-31T07:20:36;96630;;;18.9;62
68628;BME280;55611;48.602;9.490;2023-08-31T07:23:06;96630;;;18.9;62
68628;BME280;55611;48.602;9.490;2023-08-31T07:25:37;96630;;;19;62
68628;BME280;55611;48.602;9.490;2023-08-31T07:28:07;96640;;;19.2;62
68628;BME280;55611;48.602;9.490;2023-08-31T07:30:38;96630;;;19.2;62
68628;BME280;55611;48.602;9.490;2023-08-31T07:33:09;96640;;;19.3;62
68628;BME280;55611;48.602;9.490;2023-08-31T07:35:39;96640;;;19.4;62
68628;BME280;55611;48.602;9.490;2023-08-31T07:38:10;96650;;;19.5;62
68628;BME280;55611;48.602;9.490;2023-08-31T07:40:40;96650;;;19.5;62
68628;BME280;55611;48.602;9.490;2023-08-31T07:43:11;96650;;;19.6;62
68628;BME280;55611;48.602;9.490;2023-08-31T07:45:41;96660;;;19.6;62
68628;BME280;55611;48.602;9.490;2023-08-31T07:48:12;96660;;;19.7;62
68628;BME280;55611;48.602;9.490;2023-08-31T07:50:42;96670;;;19.7;62
68628;BME280;55611;48.602;9.490;2023-08-31T07:53:13;96680;;;19.7;62
68628;BME280;55611;48.602;9.490;2023-08-31T07:55:50;96690;;;19.7;62
68628;BME280;55611;48.602;9.490;2023-08-31T07:58:14;96680;;;19.6;62
68628;BME280;55611;48.602;9.490;2023-08-31T08:00:44;96680;;;19.7;62
68628;BME280;55611;48.602;9.490;2023-08-31T08:03:15;96690;;;19.6;62
68628;BME280;55611;48.602;9.490;2023-08-31T08:05:45;96680;;;19.5;62
68628;BME280;55611;48.602;9.490;2023-08-31T08:08:16;96690;;;19.4;62
68628;BME280;55611;48.602;9.490;2023-08-31T08:10:46;96680;;;19.3;62
68628;BME280;55611;48.602;9.490;2023-08-31T08:13:17;96680;;;19.2;62
68628;BME280;55611;48.602;9.490;2023-08-31T08:15:47;96680;;;19.2;62
68628;BME280;55611;48.602;9.490;2023-08-31T08:18:18;96680;;;19.4;62
68628;BME280;55611;48.602;9.490;2023-08-31T08:20:50;96680;;;19.4;62
68628;BME280;55611;48.602;9.490;2023-08-31T08:23:19;96680;;;19.4;62
68628;BME280;55611;48.602;9.490;2023-08-31T08:25:50;96670;;;19.4;62
68628;BME280;55611;48.602;9.490;2023-08-31T08:28:20;96670;;;19.4;62
68628;BME280;55611;48.602;9.490;2023-08-31T08:30:50;96680;;;19.3;62
68628;BME280;55611;48.602;9.490;2023-08-31T08:33:21;96670;;;19.4;62
68628;BME280;55611;48.602;9.490;2023-08-31T08:35:51;96680;;;19.6;62
68628;BME280;55611;48.602;9.490;2023-08-31T08:38:22;96680;;;19.7;62
68628;BME280;55611;48.602;9.490;2023-08-31T08:40:53;96680;;;19.7;62
68628;BME280;55611;48.602;9.490;2023-08-31T08:43:25;96690;;;19.8;62
68628;BME280;55611;48.602;9.490;2023-08-31T08:45:54;96690;;;19.9;62
68628;BME280;55611;48.602;9.490;2023-08-31T08:48:24;96690;;;20;62
68628;BME280;55611;48.602;9.490;2023-08-31T08:50:55;96680;;;20;62
68628;BME280;55611;48.602;9.490;2023-08-31T08:53:25;96680;;;20.1;62.5
68628;BME280;55611;48.602;9.490;2023-08-31T08:55:56;96680;;;20.1;62
68628;BME280;55611;48.602;9.490;2023-08-31T08:58:26;96680;;;20.1;62
68628;BME280;55611;48.602;9.490;2023-08-31T09:00:57;96690;;;20.2;62
68628;BME280;55611;48.602;9.490;2023-08-31T09:03:27;96700;;;20.4;62
68628;BME280;55611;48.602;9.490;2023-08-31T09:05:59;96690;;;20.5;62
68628;BME280;55611;48.602;9.490;2023-08-31T09:08:28;96690;;;20.5;62
68628;BME280;55611;48.602;9.490;2023-08-31T09:10:59;96700;;;20.6;62
68628;BME280;55611;48.602;9.490;2023-08-31T09:13:29;96700;;;20.7;62
68628;BME280;55611;48.602;9.490;2023-08-31T09:16:00;96700;;;20.8;62.5
68628;BME280;55611;48.602;9.490;2023-08-31T09:18:31;96710;;;20.9;62.5
68628;BME280;55611;48.602;9.490;2023-08-31T09:21:01;96700;;;20.9;62.5
68628;BME280;55611;48.602;9.490;2023-08-31T09:23:31;96710;;;21;62.5
68628;BME280;55611;48.602;9.490;2023-08-31T09:26:02;96700;;;21.1;62.5
68628;BME280;55611;48.602;9.490;2023-08-31T09:28:32;96710;;;21.1;62.5
68628;BME280;55611;48.602;9.490;2023-08-31T09:31:05;96710;;;20.9;62.5
68628;BME280;55611;48.602;9.490;2023-08-31T09:33:35;96700;;;20.9;62
68628;BME280;55611;48.602;9.490;2023-08-31T09:36:05;96710;;;20.8;62
68628;BME280;55611;48.602;9.490;2023-08-31T09:38:42;96710;;;20.8;62
68628;BME280;55611;48.602;9.490;2023-08-31T09:41:05;96710;;;20.8;62
68628;BME280;55611;48.602;9.490;2023-08-31T09:43:35;96720;;;20.9;62
68628;BME280;55611;48.602;9.490;2023-08-31T09:46:06;96710;;;20.9;62
68628;BME280;55611;48.602;9.490;2023-08-31T09:48:37;96720;;;20.8;62
68628;BME280;55611;48.602;9.490;2023-08-31T09:51:07;96720;;;20.6;62
68628;BME280;55611;48.602;9.490;2023-08-31T09:53:37;96720;;;20.5;62
68628;BME280;55611;48.602;9.490;2023-08-31T09:56:08;96720;;;20.6;62
68628;BME280;55611;48.602;9.490;2023-08-31T09:58:38;96720;;;20.8;62
68628;BME280;55611;48.602;9.490;2023-08-31T10:01:09;96730;;;21.1;62
68628;BME280;55611;48.602;9.490;2023-08-31T10:03:39;96730;;;21.3;62
68628;BME280;55611;48.602;9.490;2023-08-31T10:06:10;96720;;;21.3;62
68628;BME280;55611;48.602;9.490;2023-08-31T10:08:41;96730;;;21.3;62
68628;BME280;55611;48.602;9.490;2023-08-31T10:11:11;96730;;;21.1;62
68628;BME280;55611;48.602;9.490;2023-08-31T10:13:42;96720;;;21.1;62
68628;BME280;55611;48.602;9.490;2023-08-31T10:16:12;96720;;;21.2;62
68628;BME280;55611;48.602;9.490;2023-08-31T10:18:43;96720;;;21.3;62
68628;BME280;55611;48.602;9.490;2023-08-31T10:21:16;96720;;;21.4;62
68628;BME280;55611;48.602;9.490;2023-08-31T10:23:44;96710;;;21.4;62
68628;BME280;55611;48.602;9.490;2023-08-31T10:26:30;96710;;;21.6;62
68628;BME280;55611;48.602;9.490;2023-08-31T10:28:45;96710;;;21.7;62
68628;BME280;55611;48.602;9.490;2023-08-31T10:31:16;96710;;;21.8;62
68628;BME280;55611;48.602;9.490;2023-08-31T10:33:46;96720;;;21.6;62
68628;BME280;55611;48.602;9.490;2023-08-31T10:36:17;96720;;;21.5;62
68628;BME280;55611;48.602;9.490;2023-08-31T10:38:51;96730;;;21.4;62
68628;BME280;55611;48.602;9.490;2023-08-31T10:41:18;96720;;;21.5;62
68628;BME280;55611;48.602;9.490;2023-08-31T10:43:49;96720;;;21.6;62
68628;BME280;55611;48.602;9.490;2023-08-31T10:46:34;96720;;;21.6;62
68628;BME280;55611;48.602;9.490;2023-08-31T10:48:49;96730;;;21.7;62
68628;BME280;55611;48.602;9.490;2023-08-31T10:51:23;96730;;;21.6;62
68628;BME280;55611;48.602;9.490;2023-08-31T10:53:50;96720;;;21.4;62
68628;BME280;55611;48.602;9.490;2023-08-31T10:56:20;96730;;;21.5;62
68628;BME280;55611;48.602;9.490;2023-08-31T10:58:55;96720;;;21.6;62
68628;BME280;55611;48.602;9.490;2023-08-31T11:01:50;96720;;;21.8;62
68628;BME280;55611;48.602;9.490;2023-08-31T11:03:59;96710;;;21.9;62
68628;BME280;55611;48.602;9.490;2023-08-31T11:06:22;96720;;;21.7;62
68628;BME280;55611;48.602;9.490;2023-08-31T11:08:53;96720;;;21.6;62
68628;BME280;55611;48.602;9.490;2023-08-31T11:11:23;96720;;;21.4;61.5
68628;BME280;55611;48.602;9.490;2023-08-31T11:13:56;96720;;;21.4;61.5
68628;BME280;55611;48.602;9.490;2023-08-31T11:16:24;96730;;;21.5;61.5
68628;BME280;55611;48.602;9.490;2023-08-31T11:18:55;96740;;;21.7;62
68628;BME280;55611;48.602;9.490;2023-08-31T11:21:25;96730;;;21.7;62
68628;BME280;55611;48.602;9.490;2023-08-31T11:23:56;96730;;;21.6;61.5
68628;BME280;55611;48.602;9.490;2023-08-31T11:26:26;96730;;;21.6;61.5
68628;BME280;55611;48.602;9.490;2023-08-31T11:28:57;96720;;;21.5;61.5
68628;BME280;55611;48.602;9.490;2023-08-31T11:31:28;96720;;;21.5;61.5
68628;BME280;55611;48.602;9.490;2023-08-31T11:33:58;96730;;;21.6;61.5
68628;BME280;55611;48.602;9.490;2023-08-31T11:36:29;96720;;;21.8;61.5
68628;BME280;55611;48.602;9.490;2023-08-31T11:38:59;96720;;;22;61.5
68628;BME280;55611;48.602;9.490;2023-08-31T11:41:31;96710;;;22.1;61.5
68628;BME280;55611;48.602;9.490;2023-08-31T11:44:00;96710;;;21.9;61.5
68628;BME280;55611;48.602;9.490;2023-08-31T11:46:31;96710;;;21.8;61.5
68628;BME280;55611;48.602;9.490;2023-08-31T11:49:01;96710;;;21.8;61.5
68628;BME280;55611;48.602;9.490;2023-08-31T11:51:32;96710;;;21.9;61.5
68628;BME280;55611;48.602;9.490;2023-08-31T11:54:02;96710;;;21.8;61.5
68628;BME280;55611;48.602;9.490;2023-08-31T11:56:48;96720;;;21.7;61.5
68628;BME280;55611;48.602;9.490;2023-08-31T11:59:06;96710;;;21.7;61.5
68628;BME280;55611;48.602;9.490;2023-08-31T12:01:37;96710;;;21.8;61.5
68628;BME280;55611;48.602;9.490;2023-08-31T12:04:09;96710;;;21.9;61.5
68628;BME280;55611;48.602;9.490;2023-08-31T12:06:35;96720;;;21.8;61.5
68628;BME280;55611;48.602;9.490;2023-08-31T12:09:06;96730;;;21.7;61.5
68628;BME280;55611;48.602;9.490;2023-08-31T12:11:36;96720;;;21.7;61.5
68628;BME280;55611;48.602;9.490;2023-08-31T12:14:22;96720;;;21.8;61.5
68628;BME280;55611;48.602;9.490;2023-08-31T12:16:37;96710;;;22;61.5
68628;BME280;55611;48.602;9.490;2023-08-31T12:19:07;96710;;;21.9;61.5
68628;BME280;55611;48.602;9.490;2023-08-31T12:21:39;96710;;;21.9;61.5
68628;BME280;55611;48.602;9.490;2023-08-31T12:24:08;96700;;;22.2;61.5
68628;BME280;55611;48.602;9.490;2023-08-31T12:26:40;96710;;;22.4;61.5
68628;BME280;55611;48.602;9.490;2023-08-31T12:29:09;96710;;;22.6;61
68628;BME280;55611;48.602;9.490;2023-08-31T12:31:40;96700;;;22.8;61
68628;BME280;55611;48.602;9.490;2023-08-31T12:34:10;96710;;;22.9;61
68628;BME280;55611;48.602;9.490;2023-08-31T12:36:41;96700;;;23.1;61
68628;BME280;55611;48.602;9.490;2023-08-31T12:39:11;96700;;;23.1;61
68628;BME280;55611;48.602;9.490;2023-08-31T12:41:42;96700;;;23.2;61
68628;BME280;55611;48.602;9.490;2023-08-31T12:44:12;96700;;;23.2;61
68628;BME280;55611;48.602;9.490;2023-08-31T12:46:43;96700;;;23.1;61
68628;BME280;55611;48.602;9.490;2023-08-31T12:49:14;96700;;;22.9;61
68628;BME280;55611;48.602;9.490;2023-08-31T12:51:44;96690;;;22.8;61
68628;BME280;55611;48.602;9.490;2023-08-31T12:54:15;96690;;;22.8;61
68628;BME280;55611;48.602;9.490;2023-08-31T12:56:45;96690;;;22.7;61
68628;BME280;55611;48.602;9.490;2023-08-31T12:59:16;96690;;;22.7;61
68628;BME280;55611;48.602;9.490;2023-08-31T13:01:46;96690;;;22.8;61
68628;BME280;55611;48.602;9.490;2023-08-31T13:04:17;96680;;;22.9;61
68628;BME280;55611;48.602;9.490;2023-08-31T13:06:47;96680;;;22.9;61
68628;BME280;55611;48.602;9.490;2023-08-31T13:09:18;96690;;;23;61
68628;BME280;55611;48.602;9.490;2023-08-31T13:11:48;96690;;;23.1;60.5
68628;BME280;55611;48.602;9.490;2023-08-31T13:14:19;96700;;;23;60.5
68628;BME280;55611;48.602;9.490;2023-08-31T13:16:49;96700;;;23;60.5
68628;BME280;55611;48.602;9.490;2023-08-31T13:19:20;96700;;;22.9;60.5
68628;BME280;55611;48.602;9.490;2023-08-31T13:21:50;96690;;;22.9;60.5
68628;BME280;55611;48.602;9.490;2023-08-31T13:24:21;96700;;;22.8;60.5
68628;BME280;55611;48.602;9.490;2023-08-31T13:26:51;96690;;;23;60.5
68628;BME280;55611;48.602;9.490;2023-08-31T13:29:22;96690;;;23.1;60.5
68628;BME280;55611;48.602;9.490;2023-08-31T13:31:52;96690;;;23.1;60.5
68628;BME280;55611;48.602;9.490;2023-08-31T13:34:23;96690;;;23;60.5
68628;BME280;55611;48.602;9.490;2023-08-31T13:36:53;96680;;;23.1;60.5
68628;BME280;55611;48.602;9.490;2023-08-31T13:39:25;96680;;;23;60.5
68628;BME280;55611;48.602;9.490;2023-08-31T13:41:55;96680;;;23.1;60.5
68628;BME280;55611;48.602;9.490;2023-08-31T13:44:25;96670;;;23.1;60.5
68628;BME280;55611;48.602;9.490;2023-08-31T13:46:55;96670;;;23;60.5
68628;BME280;55611;48.602;9.490;2023-08-31T13:49:26;96680;;;23;60.5
68628;BME280;55611;48.602;9.490;2023-08-31T13:51:56;96680;;;23;60.5
68628;BME280;55611;48.602;9.490;2023-08-31T13:54:27;96680;;;23;60.5
68628;BME280;55611;48.602;9.490;2023-08-31T13:56:57;96680;;;22.9;60.5
68628;BME280;55611;48.602;9.490;2023-08-31T13:59:28;96690;;;22.9;60.5
68628;BME280;55611;48.602;9.490;2023-08-31T14:01:59;96680;;;22.9;60.5
68628;BME280;55611;48.602;9.490;2023-08-31T14:04:29;96660;;;22.8;60.5
68628;BME280;55611;48.602;9.490;2023-08-31T14:06:59;96670;;;22.8;60.5
68628;BME280;55611;48.602;9.490;2023-08-31T14:09:30;96680;;;23;60.5
68628;BME280;55611;48.602;9.490;2023-08-31T14:12:01;96680;;;23;60.5
68628;BME280;55611;48.602;9.490;2023-08-31T14:14:31;96680;;;23;60.5
68628;BME280;55611;48.602;9.490;2023-08-31T14:17:02;96680;;;23;60
68628;BME280;55611;48.602;9.490;2023-08-31T14:19:33;96670;;;23;60
68628;BME280;55611;48.602;9.490;2023-08-31T14:22:03;96660;;;22.8;60
68628;BME280;55611;48.602;9.490;2023-08-31T14:24:33;96670;;;22.9;60
68628;BME280;55611;48.602;9.490;2023-08-31T14:27:04;96680;;;23.1;60
68628;BME280;55611;48.602;9.490;2023-08-31T14:29:34;96670;;;23.3;60
68628;BME280;55611;48.602;9.490;2023-08-31T14:32:05;96670;;;23.5;60
68628;BME280;55611;48.602;9.490;2023-08-31T14:34:35;96660;;;23.3;60